createdAt,value
2022-08-30T00:01:05.118Z,88.33
2022-08-30T00:03:41.673Z,88.29
2022-08-30T00:06:09.706Z,87.76
2022-08-30T00:08:36.618Z,87.65
2022-08-30T00:11:05.226Z,87.67
2022-08-30T00:13:32.081Z,87.88
2022-08-30T00:15:58.900Z,88.93
2022-08-30T00:18:25.688Z,89.78
2022-08-30T00:20:52.825Z,90.19
2022-08-30T00:23:19.706Z,90.34
2022-08-30T00:25:46.641Z,91.35
2022-08-30T00:28:14.428Z,91.25
2022-08-30T00:30:43.526Z,90.87
2022-08-30T00:33:10.841Z,91.00
2022-08-30T00:35:38.785Z,91.29
2022-08-30T00:38:06.550Z,91.42
2022-08-30T00:40:33.991Z,91.96
2022-08-30T00:43:05.651Z,92.42
2022-08-30T00:45:37.072Z,92.63
2022-08-30T00:48:05.310Z,92.26
2022-08-30T00:50:42.679Z,92.27
2022-08-30T00:53:13.687Z,92.60
2022-08-30T00:55:44.164Z,92.19
2022-08-30T00:58:16.806Z,92.21
2022-08-30T01:00:44.212Z,92.44
2022-08-30T01:03:10.907Z,92.22
2022-08-30T01:05:38.886Z,92.63
2022-08-30T01:08:06.787Z,92.54
2022-08-30T01:10:34.738Z,92.73
2022-08-30T01:13:02.010Z,92.74
2022-08-30T01:15:29.241Z,92.89
2022-08-30T01:17:56.926Z,92.92
2022-08-30T01:20:29.239Z,93.14
2022-08-30T01:22:58.888Z,92.97
2022-08-30T01:25:30.283Z,93.08
2022-08-30T01:28:03.494Z,93.21
2022-08-30T01:30:31.400Z,93.26
2022-08-30T01:33:01.980Z,93.18
2022-08-30T01:35:33.322Z,92.82
2022-08-30T01:37:59.998Z,92.41
2022-08-30T01:40:26.770Z,92.98
2022-08-30T01:42:53.429Z,92.91
2022-08-30T01:45:20.229Z,92.83
2022-08-30T01:47:46.861Z,92.61
2022-08-30T01:50:13.657Z,92.61
2022-08-30T01:52:40.489Z,92.93
2022-08-30T01:55:08.940Z,93.24
2022-08-30T01:57:35.701Z,93.38
2022-08-30T02:00:02.602Z,93.24
2022-08-30T02:02:38.786Z,92.85
2022-08-30T02:05:06.462Z,93.09
2022-08-30T02:07:33.130Z,93.26
2022-08-30T02:09:59.918Z,93.79
2022-08-30T02:12:26.646Z,94.28
2022-08-30T02:14:53.468Z,94.30
2022-08-30T02:17:20.132Z,94.35
2022-08-30T02:19:46.962Z,94.14
2022-08-30T02:22:13.851Z,94.04
2022-08-30T02:24:40.626Z,94.00
2022-08-30T02:27:07.845Z,94.07
2022-08-30T02:29:34.669Z,94.10
2022-08-30T02:32:01.325Z,94.08
2022-08-30T02:34:27.987Z,94.03
2022-08-30T02:36:54.687Z,94.64
2022-08-30T02:39:21.581Z,94.45
2022-08-30T02:41:48.402Z,94.30
2022-08-30T02:44:15.588Z,94.16
2022-08-30T02:46:42.310Z,94.61
2022-08-30T02:49:32.121Z,94.95
2022-08-30T02:51:55.982Z,94.75
2022-08-30T02:54:22.724Z,94.94
2022-08-30T02:56:50.212Z,94.95
2022-08-30T02:59:18.594Z,94.79
2022-08-30T03:01:45.827Z,94.55
2022-08-30T03:04:12.840Z,94.44
2022-08-30T03:06:39.481Z,94.55
2022-08-30T03:09:06.160Z,94.80
2022-08-30T03:11:32.917Z,94.74
2022-08-30T03:13:59.675Z,95.10
2022-08-30T03:16:26.472Z,95.58
2022-08-30T03:18:53.250Z,95.16
2022-08-30T03:21:19.889Z,95.16
2022-08-30T03:23:46.591Z,94.92
2022-08-30T03:26:15.011Z,95.14
2022-08-30T03:28:43.422Z,94.77
2022-08-30T03:31:11.603Z,95.00
2022-08-30T03:33:40.570Z,94.73
2022-08-30T03:36:08.910Z,94.75
2022-08-30T03:38:36.246Z,94.75
2022-08-30T03:41:03.709Z,94.73
2022-08-30T03:43:33.468Z,94.84
2022-08-30T03:46:01.502Z,94.96
2022-08-30T03:48:28.895Z,95.51
2022-08-30T03:50:56.144Z,95.41
2022-08-30T03:53:25.569Z,95.43
2022-08-30T03:55:54.243Z,95.47
2022-08-30T03:58:21.969Z,95.60
2022-08-30T04:00:48.712Z,95.92
2022-08-30T04:03:15.771Z,96.13
2022-08-30T04:05:42.633Z,96.38
2022-08-30T04:08:09.295Z,96.16
2022-08-30T04:10:36.163Z,96.58
2022-08-30T04:13:03.100Z,96.80
2022-08-30T04:15:29.759Z,97.04
2022-08-30T04:17:56.556Z,97.08
2022-08-30T04:20:23.484Z,97.37
2022-08-30T04:22:51.677Z,97.23
2022-08-30T04:25:18.862Z,96.63
2022-08-30T04:27:46.198Z,96.41
2022-08-30T04:30:15.089Z,97.11
2022-08-30T04:32:42.683Z,97.12
2022-08-30T04:35:10.597Z,97.47
2022-08-30T04:37:38.320Z,97.23
2022-08-30T04:40:06.407Z,97.17
2022-08-30T04:42:34.929Z,97.40
2022-08-30T04:45:05.609Z,97.75
2022-08-30T04:47:32.483Z,97.41
2022-08-30T04:49:59.210Z,96.93
2022-08-30T04:52:26.087Z,96.56
2022-08-30T04:54:57.168Z,96.26
2022-08-30T04:57:25.317Z,96.22
2022-08-30T04:59:52.543Z,96.45
2022-08-30T05:02:19.885Z,96.33
2022-08-30T05:05:07.007Z,95.93
2022-08-30T05:07:33.823Z,96.01
2022-08-30T05:10:00.504Z,95.56
2022-08-30T05:12:27.792Z,95.10
2022-08-30T05:14:54.551Z,94.75
2022-08-30T05:17:21.243Z,94.27
2022-08-30T05:19:47.909Z,93.96
2022-08-30T05:22:14.589Z,94.02
2022-08-30T05:24:41.440Z,93.62
2022-08-30T05:27:08.365Z,93.57
2022-08-30T05:29:35.076Z,93.12
2022-08-30T05:32:01.913Z,92.65
2022-08-30T05:34:30.338Z,92.66
2022-08-30T05:36:57.050Z,92.52
2022-08-30T05:39:23.803Z,92.64
2022-08-30T05:41:50.522Z,92.83
2022-08-30T05:44:17.220Z,92.91
2022-08-30T05:46:46.309Z,92.93
2022-08-30T05:49:13.174Z,92.85
2022-08-30T05:51:42.975Z,92.42
2022-08-30T05:54:12.547Z,91.73
2022-08-30T05:56:40.794Z,90.61
2022-08-30T05:59:08.471Z,89.49
2022-08-30T06:01:39.727Z,88.61
2022-08-30T06:04:08.638Z,87.71
2022-08-30T06:06:37.161Z,86.27
2022-08-30T06:09:06.010Z,84.94
2022-08-30T06:11:33.925Z,84.57
2022-08-30T06:14:01.162Z,84.42
2022-08-30T06:16:28.791Z,84.45
2022-08-30T06:18:57.251Z,85.04
2022-08-30T06:21:30.961Z,84.78
2022-08-30T06:23:59.059Z,84.25
2022-08-30T06:26:27.284Z,83.53
2022-08-30T06:28:55.283Z,83.34
2022-08-30T06:31:23.592Z,82.66
2022-08-30T06:33:51.841Z,82.51
2022-08-30T06:36:21.755Z,82.03
2022-08-30T06:38:54.282Z,81.25
2022-08-30T06:41:24.981Z,78.17
2022-08-30T06:43:51.715Z,77.21
2022-08-30T06:46:21.791Z,77.25
2022-08-30T06:48:48.850Z,76.24
2022-08-30T06:51:19.871Z,75.84
2022-08-30T06:53:46.908Z,75.10
2022-08-30T06:56:16.407Z,74.78
2022-08-30T06:58:44.499Z,73.49
2022-08-30T07:01:23.803Z,73.28
2022-08-30T07:03:51.076Z,72.71
2022-08-30T07:06:19.068Z,72.12
2022-08-30T07:08:47.173Z,70.75
2022-08-30T07:11:14.729Z,70.45
2022-08-30T07:13:41.559Z,69.88
2022-08-30T07:16:13.258Z,70.05
2022-08-30T07:18:53.477Z,70.74
2022-08-30T07:21:29.706Z,70.23
2022-08-30T07:23:58.333Z,70.33
2022-08-30T07:26:35.115Z,70.54
2022-08-30T07:29:02.833Z,69.63
2022-08-30T07:31:30.000Z,69.86
2022-08-30T07:33:56.827Z,69.25
2022-08-30T07:36:24.494Z,69.01
2022-08-30T07:38:52.301Z,69.17
2022-08-30T07:41:24.779Z,68.94
2022-08-30T07:43:51.743Z,68.65
2022-08-30T07:46:19.783Z,67.97
2022-08-30T07:48:47.366Z,68.05
2022-08-30T07:51:18.350Z,66.27
2022-08-30T07:53:45.630Z,65.59
2022-08-30T07:56:12.996Z,65.72
2022-08-30T07:58:39.793Z,66.13
2022-08-30T08:01:08.982Z,65.46
2022-08-30T08:03:36.818Z,64.22
2022-08-30T08:06:05.542Z,63.35
2022-08-30T08:08:32.681Z,63.91
2022-08-30T08:11:16.638Z,61.84
2022-08-30T08:13:52.980Z,62.42
2022-08-30T08:16:23.382Z,62.01
2022-08-30T08:18:50.519Z,61.68
2022-08-30T08:21:17.337Z,61.64
2022-08-30T08:23:44.199Z,61.63
2022-08-30T08:26:11.028Z,61.67
2022-08-30T08:28:37.719Z,60.07
2022-08-30T08:31:13.400Z,60.02
2022-08-30T08:33:40.180Z,60.77
2022-08-30T08:36:09.385Z,60.93
2022-08-30T08:38:37.059Z,60.92
2022-08-30T08:41:42.325Z,60.72
2022-08-30T08:44:18.732Z,59.26
2022-08-30T08:47:01.270Z,60.23
2022-08-30T08:49:29.949Z,60.34
2022-08-30T08:52:16.329Z,60.21
2022-08-30T08:54:56.274Z,60.90
2022-08-30T08:57:35.189Z,61.39
2022-08-30T09:00:13.389Z,60.58
2022-08-30T09:02:46.287Z,58.60
2022-08-30T09:05:22.243Z,58.27
2022-08-30T09:07:57.194Z,60.11
2022-08-30T09:10:47.050Z,60.00
2022-08-30T09:13:16.970Z,58.34
2022-08-30T09:15:45.959Z,58.12
2022-08-30T09:18:19.417Z,57.51
2022-08-30T09:20:50.575Z,55.06
2022-08-30T09:23:27.404Z,54.88
2022-08-30T09:26:00.446Z,54.51
2022-08-30T09:28:30.766Z,54.17
2022-08-30T09:31:11.915Z,53.42
2022-08-30T09:33:39.306Z,53.83
2022-08-30T09:36:27.617Z,53.32
2022-08-30T09:39:04.352Z,51.21
2022-08-30T09:41:48.318Z,52.17
2022-08-30T09:44:30.567Z,52.47
2022-08-30T09:46:59.690Z,52.83
2022-08-30T09:49:32.995Z,51.44
2022-08-30T09:52:30.117Z,52.48
2022-08-30T09:55:18.079Z,51.06
2022-08-30T09:57:52.655Z,52.53
2022-08-30T10:00:22.989Z,52.06
2022-08-30T10:03:04.391Z,51.65
2022-08-30T10:05:46.110Z,51.35
2022-08-30T10:08:27.091Z,52.20
2022-08-30T10:11:09.143Z,50.43
2022-08-30T10:13:36.730Z,51.22
2022-08-30T10:16:10.750Z,52.74
2022-08-30T10:19:06.215Z,50.95
2022-08-30T10:21:43.814Z,49.61
2022-08-30T10:24:20.997Z,50.49
2022-08-30T10:26:59.877Z,49.32
2022-08-30T10:29:34.343Z,47.19
2022-08-30T10:32:22.627Z,46.50
2022-08-30T10:35:06.154Z,45.32
2022-08-30T10:37:39.904Z,46.51
2022-08-30T10:40:33.843Z,46.03
2022-08-30T10:43:05.685Z,45.76
2022-08-30T10:45:38.068Z,45.81
2022-08-30T10:48:13.876Z,43.59
2022-08-30T10:50:47.151Z,43.60
2022-08-30T10:53:19.635Z,44.12
2022-08-30T10:55:53.757Z,43.74
2022-08-30T10:58:21.002Z,44.01
2022-08-30T11:00:59.731Z,43.72
2022-08-30T11:03:52.918Z,43.29
2022-08-30T11:06:22.439Z,42.45
2022-08-30T11:09:19.794Z,41.89
2022-08-30T11:12:15.911Z,45.11
2022-08-30T11:14:46.148Z,44.09
2022-08-30T11:17:44.242Z,44.24
2022-08-30T11:20:34.619Z,43.99
2022-08-30T11:23:22.659Z,43.62
2022-08-30T11:26:03.903Z,44.39
2022-08-30T11:28:37.104Z,45.37
2022-08-30T11:31:23.991Z,43.34
2022-08-30T11:33:57.048Z,44.78
2022-08-30T11:36:37.592Z,45.04
2022-08-30T11:39:49.086Z,44.83
2022-08-30T11:42:30.524Z,44.34
2022-08-30T11:45:36.196Z,44.29
2022-08-30T11:48:09.492Z,44.33
2022-08-30T11:51:07.211Z,44.54
2022-08-30T11:53:48.622Z,44.08
2022-08-30T11:56:15.211Z,43.58
2022-08-30T11:58:54.022Z,42.44
2022-08-30T12:01:50.205Z,41.26
2022-08-30T12:04:16.624Z,40.22
2022-08-30T12:06:43.249Z,41.26
2022-08-30T12:09:25.123Z,42.43
2022-08-30T12:12:00.440Z,42.64
2022-08-30T12:14:40.999Z,43.65
2022-08-30T12:17:42.293Z,44.31
2022-08-30T12:20:47.256Z,43.77
2022-08-30T12:23:23.852Z,43.26
2022-08-30T12:26:10.904Z,44.42
2022-08-30T12:28:38.102Z,43.86
2022-08-30T12:31:27.219Z,43.72
2022-08-30T12:34:00.543Z,44.07
2022-08-30T12:36:32.713Z,43.56
2022-08-30T12:39:10.460Z,44.63
2022-08-30T12:41:43.702Z,45.06
2022-08-30T12:44:18.892Z,44.02
2022-08-30T12:46:49.156Z,44.11
2022-08-30T12:49:19.065Z,43.82
2022-08-30T12:51:46.856Z,44.34
2022-08-30T12:54:20.100Z,45.15
2022-08-30T12:57:13.941Z,44.82
2022-08-30T12:59:57.943Z,44.91
2022-08-30T13:02:41.893Z,44.88
2022-08-30T13:05:27.498Z,44.79
2022-08-30T13:08:19.569Z,45.10
2022-08-30T13:10:57.027Z,44.92
2022-08-30T13:13:31.583Z,45.16
2022-08-30T13:16:10.743Z,43.88
2022-08-30T13:18:38.614Z,44.57
2022-08-30T13:21:29.596Z,44.25
2022-08-30T13:24:02.682Z,42.80
2022-08-30T13:26:33.717Z,43.13
2022-08-30T13:29:03.449Z,42.44
2022-08-30T13:31:31.067Z,42.04
2022-08-30T13:33:59.667Z,41.66
2022-08-30T13:36:30.712Z,40.49
2022-08-30T13:38:59.014Z,41.52
2022-08-30T13:41:26.168Z,41.80
2022-08-30T13:44:14.129Z,42.77
2022-08-30T13:46:52.312Z,42.16
2022-08-30T13:52:22.883Z,41.56
2022-08-30T13:54:57.596Z,41.14
2022-08-30T14:00:19.436Z,42.25
2022-08-30T14:02:54.715Z,41.87
2022-08-30T14:05:48.986Z,42.03
2022-08-30T14:11:11.876Z,41.44
2022-08-30T14:14:14.652Z,42.01
2022-08-30T14:16:28.565Z,41.57
2022-08-30T14:18:56.345Z,41.24
2022-08-30T14:21:24.392Z,41.89
2022-08-30T14:23:52.694Z,42.53
2022-08-30T14:26:32.264Z,42.94
2022-08-30T14:28:59.869Z,42.66
2022-08-30T14:31:26.597Z,43.41
2022-08-30T14:33:53.314Z,43.57
2022-08-30T14:36:20.053Z,43.35
2022-08-30T14:38:48.518Z,43.27
2022-08-30T14:41:15.597Z,43.09
2022-08-30T14:43:42.446Z,43.43
2022-08-30T14:46:10.878Z,42.18
2022-08-30T14:48:38.901Z,42.68
2022-08-30T14:51:17.281Z,42.91
2022-08-30T14:53:44.410Z,42.57
2022-08-30T14:56:14.365Z,42.67
2022-08-30T14:58:41.091Z,42.56
2022-08-30T15:01:12.498Z,42.04
2022-08-30T15:03:40.664Z,42.01
2022-08-30T15:06:07.720Z,42.75
2022-08-30T15:08:35.967Z,43.00
2022-08-30T15:11:08.716Z,44.17
2022-08-30T15:13:35.819Z,43.97
2022-08-30T15:16:03.485Z,43.73
2022-08-30T15:18:30.579Z,44.66
2022-08-30T15:20:57.262Z,44.65
2022-08-30T15:23:24.884Z,44.86
2022-08-30T15:25:51.810Z,45.17
2022-08-30T15:28:19.252Z,44.45
2022-08-30T15:30:46.225Z,44.55
2022-08-30T15:33:12.903Z,45.36
2022-08-30T15:35:39.565Z,45.38
2022-08-30T15:38:06.437Z,46.01
2022-08-30T15:40:33.543Z,46.21
2022-08-30T15:43:03.927Z,45.96
2022-08-30T15:45:30.831Z,46.49
2022-08-30T15:48:00.912Z,45.48
2022-08-30T15:50:28.502Z,45.80
2022-08-30T15:52:55.161Z,46.63
2022-08-30T15:55:21.845Z,46.68
2022-08-30T15:57:48.527Z,46.52
2022-08-30T16:00:15.893Z,46.28
2022-08-30T16:02:42.657Z,47.21
2022-08-30T16:05:10.060Z,48.39
2022-08-30T16:07:40.682Z,47.84
2022-08-30T16:10:08.740Z,47.63
2022-08-30T16:12:35.393Z,48.26
2022-08-30T16:15:02.120Z,48.34
2022-08-30T16:17:28.802Z,48.73
2022-08-30T16:19:58.907Z,49.22
2022-08-30T16:22:26.573Z,49.63
2022-08-30T16:24:53.416Z,50.02
2022-08-30T16:27:21.234Z,50.26
2022-08-30T16:29:48.456Z,50.09
2022-08-30T16:32:17.374Z,49.84
2022-08-30T16:34:44.194Z,50.74
2022-08-30T16:37:10.904Z,51.48
2022-08-30T16:39:37.563Z,51.68
2022-08-30T16:42:06.828Z,51.53
2022-08-30T16:44:33.697Z,51.12
2022-08-30T16:47:01.498Z,51.93
2022-08-30T16:49:28.215Z,51.71
2022-08-30T16:51:55.098Z,51.95
2022-08-30T16:54:22.393Z,51.80
2022-08-30T16:56:49.180Z,52.53
2022-08-30T16:59:16.857Z,52.81
2022-08-30T17:01:44.871Z,53.00
2022-08-30T17:04:13.770Z,53.27
2022-08-30T17:06:45.113Z,53.21
2022-08-30T17:09:12.235Z,52.91
2022-08-30T17:11:40.255Z,53.50
2022-08-30T17:14:08.203Z,53.64
2022-08-30T17:16:36.955Z,54.02
2022-08-30T17:19:05.816Z,54.42
2022-08-30T17:21:33.460Z,54.69
2022-08-30T17:24:02.629Z,54.97
2022-08-30T17:26:35.942Z,55.30
2022-08-30T17:29:03.789Z,55.51
2022-08-30T17:31:31.240Z,56.41
2022-08-30T17:34:03.555Z,56.53
2022-08-30T17:36:35.315Z,57.04
2022-08-30T17:39:10.818Z,57.27
2022-08-30T17:41:43.390Z,57.37
2022-08-30T17:44:19.587Z,57.63
2022-08-30T17:46:46.450Z,57.56
2022-08-30T17:49:13.252Z,57.40
2022-08-30T17:51:43.009Z,57.21
2022-08-30T17:54:12.763Z,57.79
2022-08-30T17:56:40.558Z,57.94
2022-08-30T17:59:09.790Z,56.73
2022-08-30T18:01:37.332Z,54.95
2022-08-30T18:04:06.360Z,55.11
2022-08-30T18:06:34.481Z,54.57
2022-08-30T18:09:02.947Z,53.85
2022-08-30T18:11:29.742Z,54.30
2022-08-30T18:13:56.795Z,54.10
2022-08-30T18:16:26.269Z,53.86
2022-08-30T18:18:57.386Z,53.92
2022-08-30T18:21:25.292Z,54.01
2022-08-30T18:23:52.585Z,54.15
2022-08-30T18:26:19.446Z,53.76
2022-08-30T18:28:51.193Z,53.82
2022-08-30T18:31:17.911Z,53.85
2022-08-30T18:33:44.763Z,53.57
2022-08-30T18:36:11.501Z,53.70
2022-08-30T18:38:39.455Z,53.82
2022-08-30T18:41:09.392Z,53.75
2022-08-30T18:43:37.520Z,53.91
2022-08-30T18:46:09.372Z,53.89
2022-08-30T18:48:37.459Z,53.63
2022-08-30T18:51:11.305Z,53.71
2022-08-30T18:53:38.126Z,54.00
2022-08-30T18:56:05.156Z,53.85
2022-08-30T18:58:31.851Z,54.02
2022-08-30T19:00:58.531Z,53.84
2022-08-30T19:03:25.309Z,53.77
2022-08-30T19:05:52.022Z,54.23
2022-08-30T19:08:18.895Z,54.04
2022-08-30T19:10:45.671Z,54.56
2022-08-30T19:13:12.454Z,54.47
2022-08-30T19:15:39.159Z,54.35
2022-08-30T19:18:12.915Z,54.44
2022-08-30T19:20:45.399Z,54.45
2022-08-30T19:23:12.844Z,54.68
2022-08-30T19:25:41.318Z,54.64
2022-08-30T19:28:09.152Z,54.16
2022-08-30T19:30:36.132Z,53.84
2022-08-30T19:33:03.062Z,54.16
2022-08-30T19:35:30.407Z,53.96
2022-08-30T19:37:57.909Z,54.34
2022-08-30T19:40:25.534Z,54.48
2022-08-30T19:42:53.640Z,54.82
2022-08-30T19:45:21.618Z,55.21
2022-08-30T19:47:51.191Z,55.50
2022-08-30T19:50:18.187Z,55.42
2022-08-30T19:52:48.441Z,55.72
2022-08-30T19:55:19.566Z,55.72
2022-08-30T19:57:55.132Z,55.69
2022-08-30T20:00:23.444Z,55.74
2022-08-30T20:02:50.688Z,56.07
2022-08-30T20:05:18.233Z,56.36
2022-08-30T20:07:45.282Z,56.75
2022-08-30T20:10:15.313Z,56.81
2022-08-30T20:12:47.547Z,56.65
2022-08-30T20:15:16.863Z,57.10
2022-08-30T20:18:03.409Z,57.36
2022-08-30T20:20:33.266Z,57.57
2022-08-30T20:23:00.548Z,57.58
2022-08-30T20:25:28.929Z,57.33
2022-08-30T20:27:56.940Z,57.30
2022-08-30T20:30:23.666Z,57.89
2022-08-30T20:32:52.530Z,57.85
2022-08-30T20:35:19.317Z,57.70
2022-08-30T20:37:46.619Z,57.53
2022-08-30T20:40:16.045Z,57.62
2022-08-30T20:42:46.914Z,57.96
2022-08-30T20:45:15.838Z,58.36
2022-08-30T20:47:43.604Z,58.32
2022-08-30T20:50:16.474Z,58.17
2022-08-30T20:52:43.924Z,58.60
2022-08-30T20:55:11.916Z,58.28
2022-08-30T20:57:39.234Z,58.05
2022-08-30T21:00:10.474Z,57.84
2022-08-30T21:02:42.668Z,57.47
2022-08-30T21:05:15.512Z,57.42
2022-08-30T21:07:43.870Z,57.58
2022-08-30T21:10:11.335Z,57.83
2022-08-30T21:12:38.883Z,57.98
2022-08-30T21:15:33.744Z,58.52
2022-08-30T21:17:53.702Z,58.13
2022-08-30T21:20:20.448Z,57.81
2022-08-30T21:22:47.416Z,57.21
2022-08-30T21:25:14.121Z,57.58
2022-08-30T21:27:40.788Z,57.36
2022-08-30T21:30:08.365Z,57.55
2022-08-30T21:32:35.010Z,57.74
2022-08-30T21:35:20.430Z,57.41
2022-08-30T21:37:47.095Z,57.33
2022-08-30T21:40:17.081Z,57.05
2022-08-30T21:42:45.934Z,57.22
2022-08-30T21:45:13.973Z,57.24
2022-08-30T21:47:40.818Z,57.35
2022-08-30T21:50:08.056Z,57.36
2022-08-30T21:52:36.228Z,57.40
2022-08-30T21:55:03.674Z,57.11
2022-08-30T21:57:31.280Z,57.03
2022-08-30T21:59:58.343Z,57.42
2022-08-30T22:02:25.448Z,57.75
2022-08-30T22:04:52.951Z,57.98
2022-08-30T22:07:19.665Z,57.97
2022-08-30T22:09:46.329Z,58.03
2022-08-30T22:12:13.026Z,57.80
2022-08-30T22:14:42.670Z,58.27
2022-08-30T22:17:09.387Z,58.71
2022-08-30T22:19:36.056Z,59.08
2022-08-30T22:22:02.778Z,59.26
2022-08-30T22:24:32.262Z,59.64
2022-08-30T22:27:01.545Z,59.97
2022-08-30T22:29:29.356Z,60.11
2022-08-30T22:31:56.121Z,60.68
2022-08-30T22:34:23.009Z,61.07
2022-08-30T22:36:49.993Z,61.36
2022-08-30T22:39:18.216Z,61.54
2022-08-30T22:41:45.070Z,61.26
2022-08-30T22:44:12.462Z,61.05
2022-08-30T22:46:39.911Z,61.23
2022-08-30T22:49:11.812Z,61.83
2022-08-30T22:51:40.480Z,62.07
2022-08-30T22:54:09.524Z,62.05
2022-08-30T22:56:37.465Z,62.53
2022-08-30T22:59:05.256Z,62.36
2022-08-30T23:01:38.195Z,62.09
2022-08-30T23:04:07.518Z,62.21
2022-08-30T23:06:34.866Z,62.22
2022-08-30T23:09:01.927Z,62.47
2022-08-30T23:11:29.498Z,62.79
2022-08-30T23:13:58.543Z,62.54
2022-08-30T23:16:25.217Z,62.88
2022-08-30T23:18:51.918Z,62.85
2022-08-30T23:21:22.385Z,63.38
2022-08-30T23:24:09.895Z,63.29
2022-08-30T23:26:55.743Z,64.07
2022-08-30T23:29:41.204Z,64.88
2022-08-30T23:32:26.565Z,65.34
2022-08-30T23:35:11.843Z,65.82
2022-08-30T23:37:57.603Z,65.87
2022-08-30T23:40:43.305Z,66.40
2022-08-30T23:43:30.318Z,66.73
2022-08-30T23:46:19.257Z,66.80
2022-08-30T23:49:09.189Z,67.22
2022-08-30T23:51:56.073Z,67.92
2022-08-30T23:54:42.428Z,68.24
2022-08-30T23:57:28.016Z,68.38
